Time;durP1;ratioP1;P1;durP2;ratioP2;P2;SDS_P1;SDS_P2;PMS_P1;PMS_P2;Temp;Humidity;BMP_temperature;BMP_pressure;BME280_temperature;BME280_humidity;BME280_pressure;Samples;Min_cycle;Max_cycle;Signal;HPM_P1;HPM_P2
2023/07/29 04:04:33;;;;;;;1.03;1.03;;;17.80;99.90;;;;;;5984254;23;20438;-61
2023/07/29 04:06:58;;;;;;;1.30;1.10;;;17.90;99.90;;;;;;4938903;29;20445;-60
2023/07/29 04:09:24;;;;;;;0.90;0.90;;;17.90;99.90;;;;;;4939143;29;20186;-60
2023/07/29 04:11:50;;;;;;;1.27;1.10;;;17.90;99.90;;;;;;4939121;29;20182;-60
2023/07/29 04:14:16;;;;;;;0.87;0.87;;;17.90;99.90;;;;;;4938706;29;20233;-60
2023/07/29 04:16:41;;;;;;;0.97;0.97;;;17.90;99.90;;;;;;4939038;29;20917;-60
2023/07/29 04:19:07;;;;;;;2.37;1.10;;;17.70;99.90;;;;;;4938606;29;20178;-60
2023/07/29 04:21:33;;;;;;;2.50;0.70;;;17.70;99.90;;;;;;4938829;29;20178;-61
2023/07/29 04:23:58;;;;;;;1.40;1.30;;;17.60;99.90;;;;;;4936416;29;20178;-60
2023/07/29 04:26:24;;;;;;;1.00;1.00;;;17.50;99.90;;;;;;4937706;29;20213;-60
2023/07/29 04:28:49;;;;;;;1.30;1.20;;;17.50;99.90;;;;;;4952226;29;20245;-60
2023/07/29 04:31:15;;;;;;;0.90;0.90;;;17.50;99.90;;;;;;4957905;29;20264;-60
2023/07/29 04:33:41;;;;;;;0.80;0.80;;;17.50;99.90;;;;;;4957402;29;20245;-61
2023/07/29 04:36:06;;;;;;;1.00;1.00;;;17.40;99.90;;;;;;4956402;28;20210;-60
2023/07/29 04:38:33;;;;;;;1.37;1.33;;;17.40;99.90;;;;;;4957484;29;20182;-61
2023/07/29 04:41:02;;;;;;;1.00;1.00;;;17.40;99.90;;;;;;4941402;28;20260;-60
2023/07/29 04:43:32;;;;;;;1.10;1.10;;;17.40;99.90;;;;;;4938159;29;20430;-61
2023/07/29 04:45:58;;;;;;;8.03;1.33;;;17.40;99.90;;;;;;4938500;29;20864;-61
2023/07/29 04:48:23;;;;;;;0.80;0.80;;;17.40;99.90;;;;;;4938253;29;20510;-60
2023/07/29 04:50:49;;;;;;;1.23;1.13;;;17.40;99.90;;;;;;4938267;29;20230;-61
2023/07/29 04:53:14;;;;;;;0.90;0.87;;;17.40;99.90;;;;;;4938275;29;20186;-64
2023/07/29 04:55:43;;;;;;;1.00;1.00;;;17.40;99.90;;;;;;4937716;29;20203;-61
2023/07/29 04:58:09;;;;;;;1.17;0.80;;;17.40;99.90;;;;;;4937724;29;20218;-62
2023/07/29 05:00:35;;;;;;;0.90;0.90;;;17.40;99.90;;;;;;4932112;29;20414;-60
2023/07/29 05:03:01;;;;;;;0.83;0.83;;;17.40;99.90;;;;;;4922592;29;20914;-60
2023/07/29 05:05:27;;;;;;;1.40;1.30;;;17.40;99.90;;;;;;4918593;29;20199;-60
2023/07/29 05:07:52;;;;;;;1.07;1.00;;;17.40;99.90;;;;;;4918559;29;20191;-60
2023/07/29 05:10:18;;;;;;;1.33;1.00;;;17.40;99.90;;;;;;4933244;29;20409;-60
2023/07/29 05:12:44;;;;;;;1.20;1.10;;;17.40;99.90;;;;;;4938044;29;20260;-60
2023/07/29 05:15:10;;;;;;;1.87;1.77;;;17.50;99.90;;;;;;4936967;29;20203;-61
2023/07/29 05:17:35;;;;;;;0.93;0.93;;;17.50;99.90;;;;;;4922921;29;20249;-61
2023/07/29 05:20:01;;;;;;;1.23;1.10;;;17.50;99.90;;;;;;4931939;29;20424;-60
2023/07/29 05:22:26;;;;;;;1.50;1.43;;;17.50;99.90;;;;;;4937581;29;20540;-61
2023/07/29 05:24:52;;;;;;;1.03;0.93;;;17.50;99.90;;;;;;4936872;29;20718;-61
2023/07/29 05:27:18;;;;;;;1.30;1.30;;;17.50;99.90;;;;;;4922314;29;20189;-60
2023/07/29 05:29:43;;;;;;;1.27;0.80;;;17.50;99.90;;;;;;4927770;29;20596;-61
2023/07/29 05:32:09;;;;;;;1.57;1.47;;;17.60;99.90;;;;;;4937301;29;20233;-62
2023/07/29 05:34:34;;;;;;;0.93;0.93;;;17.60;99.90;;;;;;4936845;29;20328;-59
2023/07/29 05:37:00;;;;;;;1.43;1.33;;;17.70;99.90;;;;;;4935651;29;20818;-61
2023/07/29 05:39:26;;;;;;;1.40;1.33;;;17.70;99.90;;;;;;4935875;29;20187;-60
2023/07/29 05:41:51;;;;;;;1.80;1.40;;;17.60;99.90;;;;;;4937318;29;20710;-60
2023/07/29 05:44:17;;;;;;;1.53;1.43;;;17.60;99.90;;;;;;4936563;29;20583;-60
2023/07/29 05:46:42;;;;;;;1.23;1.13;;;17.60;99.90;;;;;;4937170;29;20209;-60
2023/07/29 05:49:08;;;;;;;1.93;1.67;;;17.70;99.90;;;;;;4937188;29;20661;-60
2023/07/29 05:51:33;;;;;;;1.53;1.47;;;17.70;99.90;;;;;;4937235;29;20242;-61
2023/07/29 05:53:59;;;;;;;1.80;1.70;;;17.80;99.90;;;;;;4936753;29;20195;-60
2023/07/29 05:56:24;;;;;;;1.20;1.20;;;17.90;99.90;;;;;;4937079;29;20207;-60
2023/07/29 05:58:50;;;;;;;1.77;1.60;;;17.90;99.90;;;;;;4936148;29;20187;-63
2023/07/29 06:01:15;;;;;;;1.53;1.40;;;18.00;99.90;;;;;;4936603;29;20185;-61
2023/07/29 06:03:41;;;;;;;1.93;1.50;;;18.10;99.90;;;;;;4936575;29;20493;-63
2023/07/29 06:06:07;;;;;;;1.63;1.53;;;18.20;99.90;;;;;;4936760;29;20267;-61
2023/07/29 06:08:34;;;;;;;1.67;1.23;;;18.40;99.90;;;;;;4937130;29;20182;-61
2023/07/29 06:11:00;;;;;;;1.27;1.23;;;18.50;99.90;;;;;;4936892;29;20414;-60
2023/07/29 06:13:25;;;;;;;1.03;1.03;;;18.60;99.90;;;;;;4936251;29;20564;-60
2023/07/29 06:15:51;;;;;;;2.00;1.53;;;18.80;99.90;;;;;;4936594;29;21015;-59
2023/07/29 06:18:17;;;;;;;1.50;1.40;;;18.90;99.90;;;;;;4936810;29;20220;-60
2023/07/29 06:20:42;;;;;;;1.80;1.47;;;19.10;99.90;;;;;;4936529;29;20204;-60
2023/07/29 06:23:08;;;;;;;1.70;1.57;;;19.20;99.90;;;;;;4936387;29;20202;-59
2023/07/29 06:25:34;;;;;;;3.17;1.83;;;19.30;99.90;;;;;;4936181;29;20249;-61
2023/07/29 06:27:59;;;;;;;2.77;1.03;;;19.30;99.90;;;;;;4936301;29;20182;-59
2023/07/29 06:30:25;;;;;;;1.33;1.27;;;19.30;99.90;;;;;;4935417;29;20667;-59
2023/07/29 06:32:51;;;;;;;1.73;1.63;;;19.40;99.90;;;;;;4936570;29;20184;-58
2023/07/29 06:35:16;;;;;;;1.30;1.20;;;19.50;99.90;;;;;;4934025;29;20263;-59
2023/07/29 06:37:42;;;;;;;1.70;1.10;;;19.50;99.90;;;;;;4925537;29;20209;-59
2023/07/29 06:40:08;;;;;;;1.30;1.13;;;19.50;99.90;;;;;;4917506;29;20170;-59
2023/07/29 06:42:34;;;;;;;1.57;1.20;;;19.60;99.90;;;;;;4934267;29;20192;-60
2023/07/29 06:44:59;;;;;;;1.40;1.30;;;19.80;99.90;;;;;;4935878;29;20433;-59
2023/07/29 06:47:25;;;;;;;2.30;0.73;;;19.90;99.90;;;;;;4936043;29;20644;-59
2023/07/29 06:49:50;;;;;;;0.60;0.60;;;19.90;99.90;;;;;;4936223;29;20177;-58
2023/07/29 06:52:16;;;;;;;0.70;0.70;;;19.90;99.90;;;;;;4936593;29;20256;-60
2023/07/29 06:54:41;;;;;;;1.20;1.10;;;19.70;99.90;;;;;;4935772;29;20201;-60
2023/07/29 06:57:08;;;;;;;1.03;0.90;;;19.70;99.90;;;;;;4932338;29;20687;-59
2023/07/29 06:59:35;;;;;;;1.17;1.17;;;19.50;99.90;;;;;;4936104;29;20221;-61
2023/07/29 07:02:01;;;;;;;1.90;1.80;;;19.40;99.90;;;;;;4935999;29;20847;-60
2023/07/29 07:04:27;;;;;;;1.43;1.33;;;19.30;99.90;;;;;;4934575;29;20741;-61
2023/07/29 07:06:52;;;;;;;1.13;0.87;;;19.30;99.90;;;;;;4935766;29;20423;-61
2023/07/29 07:09:19;;;;;;;1.30;1.20;;;19.30;99.90;;;;;;4935683;29;20195;-61
2023/07/29 07:11:44;;;;;;;2.40;1.60;;;19.10;99.90;;;;;;4935497;29;20173;-60
2023/07/29 07:14:10;;;;;;;1.10;1.10;;;19.10;99.90;;;;;;4934868;29;20500;-67
2023/07/29 07:16:36;;;;;;;93.80;6.27;;;19.10;99.90;;;;;;4936340;29;20217;-59
2023/07/29 07:19:03;;;;;;;2.40;1.20;;;19.10;99.90;;;;;;4935018;29;20185;-59
2023/07/29 07:21:28;;;;;;;3.10;2.07;;;19.10;99.90;;;;;;4936177;29;20421;-60
2023/07/29 07:23:54;;;;;;;2.70;2.27;;;19.00;99.90;;;;;;4935365;29;20429;-61
2023/07/29 07:26:19;;;;;;;1.30;1.20;;;19.00;99.90;;;;;;4935739;29;20207;-60
2023/07/29 07:28:45;;;;;;;1.60;1.50;;;19.00;99.90;;;;;;4936027;29;20181;-61
2023/07/29 07:31:11;;;;;;;1.13;1.13;;;19.00;99.90;;;;;;4936087;29;20655;-59
2023/07/29 07:33:36;;;;;;;2.57;2.37;;;19.00;99.90;;;;;;4935699;29;20188;-59
2023/07/29 07:36:02;;;;;;;2.20;2.00;;;18.90;99.90;;;;;;4935569;29;20272;-60
2023/07/29 07:38:27;;;;;;;0.97;0.97;;;19.00;99.90;;;;;;4935700;29;20539;-59
2023/07/29 07:40:57;;;;;;;0.87;0.80;;;19.00;99.90;;;;;;4936026;29;20174;-61
2023/07/29 07:43:24;;;;;;;1.10;1.10;;;19.00;99.90;;;;;;4935375;29;20200;-60
2023/07/29 07:45:49;;;;;;;1.40;1.30;;;19.10;99.90;;;;;;4935725;29;20421;-60
2023/07/29 07:48:16;;;;;;;1.97;1.67;;;19.10;99.90;;;;;;4935771;29;20900;-60
2023/07/29 07:50:43;;;;;;;1.93;1.73;;;19.20;99.90;;;;;;4935710;29;20186;-60
2023/07/29 07:53:08;;;;;;;1.10;1.10;;;19.30;99.90;;;;;;4935463;29;20421;-60
2023/07/29 07:55:34;;;;;;;1.43;1.33;;;19.50;99.90;;;;;;4934926;29;20450;-60
2023/07/29 07:58:00;;;;;;;2.33;2.10;;;19.50;99.90;;;;;;4935829;29;20243;-60
2023/07/29 08:00:25;;;;;;;0.90;0.90;;;19.60;99.90;;;;;;4929529;29;20181;-60
2023/07/29 08:02:51;;;;;;;2.00;1.20;;;19.60;99.90;;;;;;4939137;29;20174;-60
2023/07/29 08:05:18;;;;;;;0.60;0.60;;;19.60;99.90;;;;;;4939022;29;20528;-67
2023/07/29 08:07:43;;;;;;;1.53;1.00;;;19.70;99.90;;;;;;4938753;29;20193;-60
2023/07/29 08:10:09;;;;;;;0.77;0.70;;;19.80;99.90;;;;;;4937694;29;20415;-60
2023/07/29 08:12:35;;;;;;;0.90;0.70;;;19.90;99.90;;;;;;4938974;29;20205;-60
2023/07/29 08:15:00;;;;;;;1.33;1.30;;;20.00;99.90;;;;;;4938567;29;20197;-61
2023/07/29 08:17:26;;;;;;;1.03;0.83;;;20.20;99.90;;;;;;4938643;29;20594;-61
2023/07/29 08:19:51;;;;;;;0.70;0.70;;;20.40;99.90;;;;;;4938394;29;20274;-61
2023/07/29 08:22:20;;;;;;;1.03;0.93;;;20.50;99.90;;;;;;4938379;29;20185;-59
2023/07/29 08:24:46;;;;;;;1.53;1.20;;;20.60;99.90;;;;;;4937463;29;20217;-62
2023/07/29 08:27:11;;;;;;;0.93;0.70;;;20.80;99.90;;;;;;4937301;29;20988;-61
2023/07/29 08:29:37;;;;;;;1.13;1.10;;;21.40;99.90;;;;;;4936127;29;20297;-62
2023/07/29 08:32:03;;;;;;;0.83;0.83;;;22.00;99.90;;;;;;4937635;29;20177;-60
2023/07/29 08:34:28;;;;;;;1.00;0.70;;;22.40;99.90;;;;;;4937108;29;20236;-61
2023/07/29 08:36:54;;;;;;;0.50;0.50;;;22.70;99.90;;;;;;4936657;29;20236;-61
2023/07/29 08:39:19;;;;;;;0.50;0.50;;;22.90;99.90;;;;;;4936349;29;20177;-61
2023/07/29 08:42:08;;;;;;;0.87;0.87;;;22.90;99.90;;;;;;4936761;29;20180;-62
2023/07/29 08:44:43;;;;;;;0.40;0.40;;;23.00;99.90;;;;;;4936362;29;20204;-62
2023/07/29 08:47:08;;;;;;;0.63;0.63;;;23.10;99.90;;;;;;4936920;29;20809;-61
2023/07/29 08:49:35;;;;;;;0.50;0.50;;;23.10;99.90;;;;;;4936081;29;20433;-60
2023/07/29 08:52:01;;;;;;;0.70;0.70;;;23.60;99.90;;;;;;4938367;29;20255;-61
2023/07/29 08:54:27;;;;;;;0.50;0.50;;;24.20;99.90;;;;;;4937568;29;20435;-59
2023/07/29 08:56:52;;;;;;;0.77;0.50;;;24.70;99.90;;;;;;4938063;29;20440;-60
2023/07/29 08:59:19;;;;;;;0.60;0.60;;;24.90;99.90;;;;;;4937812;29;20182;-60
2023/07/29 09:01:46;;;;;;;0.90;0.70;;;25.00;99.90;;;;;;4937819;29;20661;-60
2023/07/29 09:04:12;;;;;;;0.70;0.70;;;25.20;99.90;;;;;;4937379;29;20473;-60
2023/07/29 09:06:39;;;;;;;1.60;1.50;;;25.70;99.90;;;;;;4938169;29;20494;-63
2023/07/29 09:09:07;;;;;;;2.70;2.47;;;26.40;99.90;;;;;;4933229;29;20553;-60
2023/07/29 09:11:33;;;;;;;1.40;1.30;;;27.10;99.90;;;;;;4937529;29;20441;-60
2023/07/29 09:13:58;;;;;;;0.93;0.90;;;27.80;99.90;;;;;;4936480;29;20429;-60
2023/07/29 09:16:25;;;;;;;0.87;0.87;;;28.60;99.90;;;;;;4937719;29;20494;-61
2023/07/29 09:18:51;;;;;;;0.80;0.80;;;29.70;99.90;;;;;;4937640;29;20174;-61
2023/07/29 09:21:22;;;;;;;1.27;1.07;;;30.50;99.90;;;;;;4937685;29;20440;-62
2023/07/29 09:23:49;;;;;;;0.97;0.97;;;30.90;99.90;;;;;;4937119;29;20853;-61
2023/07/29 09:26:23;;;;;;;1.03;0.90;;;31.00;99.90;;;;;;4936618;29;20935;-62
2023/07/29 09:28:55;;;;;;;0.97;0.97;;;31.00;99.90;;;;;;4936698;29;20433;-61
2023/07/29 09:31:25;;;;;;;1.30;1.20;;;30.70;99.90;;;;;;4937436;29;20480;-61
2023/07/29 09:33:59;;;;;;;1.27;1.17;;;30.50;99.90;;;;;;4936965;29;20718;-60
2023/07/29 09:36:26;;;;;;;1.27;1.17;;;30.90;99.90;;;;;;4937176;29;20464;-61
2023/07/29 09:38:56;;;;;;;1.30;1.20;;;31.60;99.90;;;;;;4937475;29;20442;-61
2023/07/29 09:41:30;;;;;;;1.10;1.10;;;32.30;98.40;;;;;;4936388;29;20436;-63
2023/07/29 09:44:02;;;;;;;1.00;1.00;;;32.80;98.10;;;;;;4937005;29;20783;-62
2023/07/29 09:46:37;;;;;;;1.10;1.00;;;33.20;96.30;;;;;;4937054;29;20788;-62
2023/07/29 09:49:07;;;;;;;1.33;0.93;;;33.30;94.90;;;;;;4937483;29;20567;-61
2023/07/29 09:51:42;;;;;;;0.90;0.90;;;32.80;95.20;;;;;;4937044;29;20504;-61
2023/07/29 09:54:09;;;;;;;1.00;1.00;;;32.40;95.50;;;;;;4936536;29;20420;-61
2023/07/29 09:56:40;;;;;;;0.90;0.90;;;32.20;95.30;;;;;;4937166;29;20500;-61
2023/07/29 09:59:06;;;;;;;1.13;1.10;;;31.80;96.00;;;;;;4936904;29;20425;-60
2023/07/29 10:01:34;;;;;;;1.30;1.20;;;31.20;96.60;;;;;;4936563;29;20400;-62
2023/07/29 10:04:01;;;;;;;1.10;0.97;;;30.70;98.10;;;;;;4936611;29;20174;-61
2023/07/29 10:06:27;;;;;;;0.77;0.77;;;30.50;98.10;;;;;;4936757;29;20457;-61
2023/07/29 10:08:54;;;;;;;1.00;1.00;;;30.70;98.20;;;;;;4934603;29;20456;-61
2023/07/29 10:11:21;;;;;;;1.20;1.10;;;31.00;97.60;;;;;;4936784;29;20504;-62
2023/07/29 10:13:48;;;;;;;1.10;1.10;;;31.70;97.80;;;;;;4936702;29;20569;-62
2023/07/29 10:16:14;;;;;;;0.80;0.80;;;32.60;96.30;;;;;;4936766;29;20493;-62
2023/07/29 10:18:41;;;;;;;1.43;1.33;;;33.40;94.90;;;;;;4936869;29;20410;-62
2023/07/29 10:21:08;;;;;;;1.50;1.40;;;34.20;92.50;;;;;;4936968;29;20457;-63
2023/07/29 10:23:40;;;;;;;1.50;1.40;;;34.90;91.40;;;;;;4934882;29;20421;-63
2023/07/29 10:26:10;;;;;;;1.00;1.00;;;35.40;90.50;;;;;;4936725;29;20445;-63
2023/07/29 10:28:40;;;;;;;1.17;1.17;;;35.40;90.30;;;;;;4936593;29;20413;-63
2023/07/29 10:31:06;;;;;;;0.80;0.80;;;34.50;89.10;;;;;;4936543;29;20468;-63
2023/07/29 10:33:34;;;;;;;0.60;0.60;;;33.30;91.00;;;;;;4936042;29;20817;-62
2023/07/29 10:36:00;;;;;;;0.63;0.63;;;32.20;92.90;;;;;;4935065;29;20424;-63
2023/07/29 10:38:26;;;;;;;0.97;0.90;;;30.90;94.10;;;;;;4931571;29;20443;-62
2023/07/29 10:40:59;;;;;;;1.07;0.80;;;29.60;96.40;;;;;;4927218;29;20475;-62
2023/07/29 10:43:32;;;;;;;1.70;0.90;;;28.40;98.80;;;;;;4936285;29;20391;-64
2023/07/29 10:46:14;;;;;;;0.80;0.80;;;27.80;99.90;;;;;;4935946;29;20420;-61
2023/07/29 10:48:41;;;;;;;0.60;0.57;;;26.70;99.90;;;;;;4936108;29;20766;-61
2023/07/29 10:51:30;;;;;;;0.60;0.60;;;25.90;99.90;;;;;;4936225;29;20489;-60
2023/07/29 10:54:18;;;;;;;0.77;0.77;;;25.40;99.90;;;;;;4935571;29;20393;-60
2023/07/29 10:56:48;;;;;;;0.60;0.60;;;25.10;99.90;;;;;;4935069;29;20511;-60
2023/07/29 10:59:17;;;;;;;0.60;0.60;;;25.30;99.90;;;;;;4936368;29;20410;-61
2023/07/29 11:01:50;;;;;;;0.80;0.80;;;25.40;99.90;;;;;;4936156;29;20962;-62
2023/07/29 11:04:27;;;;;;;4.70;0.80;;;25.60;99.90;;;;;;4936111;29;20395;-67
2023/07/29 11:07:06;;;;;;;0.60;0.60;;;25.80;99.90;;;;;;4935339;29;20441;-64
2023/07/29 11:09:47;;;;;;;0.80;0.80;;;26.00;99.90;;;;;;4925064;29;20758;-62
2023/07/29 11:12:45;;;;;;;0.73;0.73;;;26.30;99.90;;;;;;4936366;29;20392;-62
2023/07/29 11:15:11;;;;;;;0.80;0.80;;;26.80;99.90;;;;;;4918343;29;20829;-61
2023/07/29 11:17:47;;;;;;;0.67;0.67;;;27.50;99.90;;;;;;4916640;29;20512;-62
2023/07/29 11:20:13;;;;;;;0.50;0.50;;;28.00;99.90;;;;;;4916562;29;20660;-61
2023/07/29 11:22:39;;;;;;;0.70;0.70;;;28.30;99.90;;;;;;4916917;29;20433;-61
2023/07/29 11:25:07;;;;;;;1.07;1.00;;;28.40;99.90;;;;;;4928896;29;20424;-63
2023/07/29 11:27:33;;;;;;;0.70;0.70;;;28.60;99.90;;;;;;4935036;29;20540;-65
2023/07/29 11:30:00;;;;;;;1.07;0.97;;;28.60;99.90;;;;;;4935530;29;20428;-64
2023/07/29 11:32:26;;;;;;;0.70;0.70;;;28.70;99.90;;;;;;4935930;29;20190;-64
2023/07/29 11:34:52;;;;;;;0.80;0.80;;;28.70;99.90;;;;;;4938558;29;20512;-65
2023/07/29 11:37:20;;;;;;;0.60;0.60;;;28.80;99.90;;;;;;4939383;29;20527;-65
2023/07/29 11:39:45;;;;;;;0.70;0.70;;;29.00;99.90;;;;;;4939032;29;20174;-61
2023/07/29 11:42:12;;;;;;;0.60;0.60;;;28.80;99.80;;;;;;4939735;29;20384;-61
2023/07/29 11:44:38;;;;;;;0.87;0.87;;;28.70;99.90;;;;;;4939009;29;20604;-61
2023/07/29 11:47:07;;;;;;;0.80;0.80;;;28.50;99.90;;;;;;4926022;29;20461;-61
2023/07/29 11:49:34;;;;;;;1.23;1.13;;;28.20;99.90;;;;;;4928540;29;20513;-62
2023/07/29 11:52:00;;;;;;;0.80;0.80;;;28.00;99.90;;;;;;4938732;29;20404;-61
2023/07/29 11:54:26;;;;;;;0.70;0.70;;;27.90;99.90;;;;;;4938340;29;20452;-64
2023/07/29 11:56:52;;;;;;;0.70;0.70;;;27.80;99.90;;;;;;4939140;29;20977;-62
2023/07/29 11:59:17;;;;;;;1.03;0.70;;;27.90;99.90;;;;;;4937761;29;20257;-62
2023/07/29 12:01:43;;;;;;;0.70;0.70;;;28.00;99.90;;;;;;4938434;29;20640;-61
2023/07/29 12:04:09;;;;;;;0.73;0.73;;;28.00;99.90;;;;;;4938239;29;20264;-62
2023/07/29 12:06:35;;;;;;;0.80;0.80;;;28.10;99.90;;;;;;4938503;29;20196;-62
2023/07/29 12:09:01;;;;;;;1.30;1.20;;;28.10;99.90;;;;;;4938563;29;20425;-62
2023/07/29 12:11:27;;;;;;;0.53;0.53;;;28.20;99.90;;;;;;4938970;29;20387;-61
2023/07/29 12:13:55;;;;;;;1.00;0.80;;;28.30;99.90;;;;;;4938247;29;20185;-61
2023/07/29 12:16:21;;;;;;;0.97;0.90;;;28.30;99.90;;;;;;4938297;29;20675;-61
2023/07/29 12:18:49;;;;;;;0.90;0.90;;;28.30;99.90;;;;;;4938981;29;20417;-62
2023/07/29 12:21:15;;;;;;;0.90;0.90;;;28.30;99.90;;;;;;4938974;29;20166;-62
2023/07/29 12:23:41;;;;;;;1.07;0.97;;;28.40;99.90;;;;;;4938697;29;20413;-62
2023/07/29 12:26:06;;;;;;;1.17;1.07;;;28.50;99.90;;;;;;4938498;29;20322;-61
2023/07/29 12:28:32;;;;;;;0.70;0.70;;;28.60;99.90;;;;;;4938833;29;20202;-62
2023/07/29 12:30:59;;;;;;;1.33;1.13;;;28.60;99.50;;;;;;4938620;29;20166;-61
2023/07/29 12:33:31;;;;;;;0.97;0.80;;;28.40;99.40;;;;;;4937934;29;20177;-62
2023/07/29 12:35:57;;;;;;;1.27;1.17;;;28.30;99.90;;;;;;4938676;29;20400;-59
2023/07/29 12:38:22;;;;;;;1.00;1.00;;;28.40;99.90;;;;;;4938653;29;20556;-61
2023/07/29 12:40:48;;;;;;;0.90;0.90;;;28.40;98.80;;;;;;4938255;29;20648;-61
2023/07/29 12:43:14;;;;;;;0.97;0.97;;;28.40;99.30;;;;;;4938064;29;20182;-61
2023/07/29 12:45:41;;;;;;;1.70;1.60;;;28.30;99.30;;;;;;4937413;29;20200;-60
2023/07/29 12:48:07;;;;;;;1.20;1.10;;;28.40;98.50;;;;;;4937954;29;20612;-61
2023/07/29 12:50:32;;;;;;;1.27;1.20;;;28.40;96.80;;;;;;4938200;29;20420;-61
2023/07/29 12:52:58;;;;;;;1.20;1.03;;;28.40;96.30;;;;;;4938509;29;20385;-61
2023/07/29 12:55:24;;;;;;;0.70;0.70;;;28.40;95.20;;;;;;4937943;29;20193;-62
2023/07/29 12:57:50;;;;;;;1.10;1.00;;;28.40;95.20;;;;;;4938155;29;20197;-62
2023/07/29 13:00:15;;;;;;;1.10;1.00;;;28.30;94.80;;;;;;4938299;29;20267;-61
2023/07/29 13:02:41;;;;;;;0.90;0.90;;;28.30;94.50;;;;;;4937541;29;20554;-61
2023/07/29 13:05:11;;;;;;;0.90;0.90;;;28.20;93.50;;;;;;4937312;29;20186;-61
2023/07/29 13:07:37;;;;;;;1.30;1.00;;;28.00;93.70;;;;;;4936450;29;20192;-60
2023/07/29 13:10:03;;;;;;;0.83;0.83;;;27.90;94.30;;;;;;4937562;29;20418;-61
2023/07/29 13:12:29;;;;;;;1.33;1.00;;;27.90;94.10;;;;;;4937813;29;20416;-61
2023/07/29 13:14:54;;;;;;;1.00;0.90;;;27.80;93.80;;;;;;4937271;29;20429;-61
2023/07/29 13:17:21;;;;;;;1.43;1.33;;;27.80;94.70;;;;;;4937577;29;20695;-61
2023/07/29 13:19:47;;;;;;;0.80;0.80;;;27.90;94.10;;;;;;4937568;29;20268;-60
2023/07/29 13:22:13;;;;;;;1.03;0.83;;;27.90;94.00;;;;;;4937182;29;20475;-62
2023/07/29 13:24:38;;;;;;;1.37;0.90;;;28.00;94.80;;;;;;4936543;29;20202;-62
2023/07/29 13:27:04;;;;;;;1.27;1.10;;;27.90;94.20;;;;;;4937620;29;20229;-62
2023/07/29 13:29:30;;;;;;;1.00;1.00;;;27.90;94.20;;;;;;4937396;29;20651;-62
2023/07/29 13:31:55;;;;;;;1.20;1.10;;;27.90;94.20;;;;;;4935958;29;20430;-61
2023/07/29 13:34:21;;;;;;;1.00;0.90;;;27.90;94.00;;;;;;4936476;29;20185;-61
2023/07/29 13:36:47;;;;;;;0.80;0.80;;;27.80;94.60;;;;;;4937314;29;20249;-61
2023/07/29 13:39:13;;;;;;;1.10;0.93;;;27.80;94.60;;;;;;4936788;29;20198;-61
2023/07/29 13:41:38;;;;;;;0.80;0.80;;;27.90;94.70;;;;;;4937300;29;20474;-61
2023/07/29 13:44:04;;;;;;;0.90;0.90;;;28.00;95.10;;;;;;4937098;29;20256;-60
2023/07/29 13:46:30;;;;;;;1.23;1.13;;;27.90;94.40;;;;;;4937240;29;20200;-60
2023/07/29 13:48:55;;;;;;;1.03;0.93;;;27.90;95.00;;;;;;4937436;29;20178;-62
2023/07/29 13:51:21;;;;;;;1.20;1.10;;;27.80;94.30;;;;;;4937522;29;20640;-61
2023/07/29 13:53:46;;;;;;;1.30;1.20;;;27.70;94.50;;;;;;4936711;29;20232;-61
2023/07/29 13:56:12;;;;;;;1.10;1.00;;;27.80;95.00;;;;;;4936621;29;20203;-61
2023/07/29 13:58:38;;;;;;;0.80;0.80;;;27.80;94.70;;;;;;4936925;29;20177;-61
2023/07/29 14:01:03;;;;;;;1.37;1.37;;;27.70;94.80;;;;;;4937195;29;20541;-61
2023/07/29 14:03:29;;;;;;;1.00;1.00;;;27.70;94.70;;;;;;4936552;29;20173;-61
2023/07/29 14:05:54;;;;;;;0.90;0.90;;;27.70;95.10;;;;;;4936330;29;20572;-61
2023/07/29 14:08:20;;;;;;;1.47;1.37;;;27.80;95.40;;;;;;4935338;29;20266;-61
2023/07/29 14:10:45;;;;;;;1.93;1.00;;;27.70;93.90;;;;;;4936900;29;20197;-62
2023/07/29 14:13:11;;;;;;;0.90;0.90;;;27.80;94.80;;;;;;4936662;29;20186;-61
2023/07/29 14:15:37;;;;;;;0.90;0.90;;;27.70;94.40;;;;;;4935985;29;20237;-62
2023/07/29 14:18:02;;;;;;;1.73;1.53;;;27.80;94.10;;;;;;4937117;29;20229;-61
2023/07/29 14:20:28;;;;;;;1.70;1.60;;;27.90;94.50;;;;;;4938596;29;20217;-61
2023/07/29 14:22:53;;;;;;;1.33;1.17;;;27.80;94.90;;;;;;4940943;29;20181;-61
2023/07/29 14:25:19;;;;;;;1.03;1.03;;;27.90;94.70;;;;;;4940135;29;20252;-62
2023/07/29 14:27:45;;;;;;;2.30;2.10;;;27.90;95.00;;;;;;4937984;29;20181;-61
2023/07/29 14:30:11;;;;;;;1.60;1.50;;;28.00;95.10;;;;;;4937807;29;20177;-62
2023/07/29 14:32:37;;;;;;;0.90;0.80;;;28.00;95.20;;;;;;4936076;29;20204;-61
2023/07/29 14:35:03;;;;;;;0.77;0.77;;;28.20;94.30;;;;;;4936140;29;20189;-61
2023/07/29 14:37:30;;;;;;;0.70;0.70;;;28.10;94.50;;;;;;4936118;29;20440;-61
2023/07/29 14:39:57;;;;;;;0.97;0.97;;;27.90;94.40;;;;;;4937357;29;20865;-61
2023/07/29 14:42:23;;;;;;;0.90;0.90;;;27.80;94.60;;;;;;4937693;29;20744;-61
2023/07/29 14:44:48;;;;;;;1.40;0.77;;;27.80;95.10;;;;;;4938089;29;20414;-61
2023/07/29 14:47:14;;;;;;;1.73;1.63;;;27.70;95.70;;;;;;4936546;29;20584;-61
2023/07/29 14:49:40;;;;;;;2.90;1.80;;;27.70;95.80;;;;;;4935272;29;20184;-60
2023/07/29 14:52:06;;;;;;;1.40;1.30;;;27.60;95.80;;;;;;4936393;29;20289;-61
2023/07/29 14:54:32;;;;;;;1.13;1.03;;;27.50;95.90;;;;;;4935322;29;20572;-61
2023/07/29 14:56:57;;;;;;;1.10;1.00;;;27.50;96.20;;;;;;4936146;29;20435;-61
2023/07/29 14:59:23;;;;;;;1.03;1.00;;;27.50;95.70;;;;;;4936115;29;20240;-63
2023/07/29 15:01:48;;;;;;;1.90;0.93;;;27.50;95.80;;;;;;4935465;29;20195;-61
2023/07/29 15:04:14;;;;;;;0.80;0.80;;;27.40;95.70;;;;;;4935729;29;20179;-61
2023/07/29 15:06:40;;;;;;;1.27;1.17;;;27.30;96.10;;;;;;4935749;29;20223;-60
2023/07/29 15:09:06;;;;;;;1.37;1.10;;;27.30;96.10;;;;;;4935487;29;20599;-60
2023/07/29 15:11:35;;;;;;;0.77;0.77;;;27.10;96.00;;;;;;4936158;29;20191;-61
2023/07/29 15:14:00;;;;;;;1.20;1.10;;;27.00;95.70;;;;;;4936002;29;20407;-61
2023/07/29 15:16:26;;;;;;;1.33;1.10;;;26.80;96.20;;;;;;4935747;29;20442;-60
2023/07/29 15:18:52;;;;;;;2.70;1.60;;;26.80;96.10;;;;;;4936037;29;20256;-60
2023/07/29 15:21:17;;;;;;;1.00;1.00;;;26.70;97.30;;;;;;4935958;29;20513;-60
2023/07/29 15:23:43;;;;;;;2.13;1.77;;;26.70;97.00;;;;;;4935767;29;20206;-61
2023/07/29 15:26:09;;;;;;;1.87;1.77;;;26.80;96.90;;;;;;4935457;29;20651;-60
2023/07/29 15:28:35;;;;;;;0.90;0.80;;;26.90;96.50;;;;;;4936040;29;20451;-59
2023/07/29 15:31:01;;;;;;;1.97;1.80;;;26.90;96.60;;;;;;4935349;29;20247;-62
2023/07/29 15:33:27;;;;;;;1.53;1.43;;;26.90;96.40;;;;;;4933940;29;20207;-61
2023/07/29 15:35:52;;;;;;;1.53;1.43;;;27.00;97.00;;;;;;4935716;29;20897;-61
2023/07/29 15:38:18;;;;;;;1.30;1.20;;;27.00;96.40;;;;;;4935869;29;20267;-61
2023/07/29 15:40:44;;;;;;;1.40;1.30;;;27.00;96.50;;;;;;4935888;29;20212;-61
2023/07/29 15:43:10;;;;;;;1.57;1.47;;;27.00;96.30;;;;;;4935617;29;20438;-61
2023/07/29 15:45:36;;;;;;;2.00;1.80;;;27.00;97.10;;;;;;4935406;29;20471;-61
2023/07/29 15:48:02;;;;;;;1.40;1.30;;;26.90;97.50;;;;;;4935820;29;20181;-65
2023/07/29 15:50:28;;;;;;;0.90;0.90;;;26.90;97.50;;;;;;4935943;29;20428;-60
2023/07/29 15:52:54;;;;;;;1.20;1.10;;;27.00;96.70;;;;;;4934384;29;20424;-62
2023/07/29 15:55:20;;;;;;;1.27;1.10;;;27.00;96.80;;;;;;4935282;29;20892;-61
2023/07/29 15:57:46;;;;;;;1.03;0.97;;;27.00;96.10;;;;;;4935328;29;20217;-60
2023/07/29 16:00:12;;;;;;;1.63;1.53;;;26.90;95.90;;;;;;4935372;29;20435;-61
2023/07/29 16:02:38;;;;;;;1.43;1.33;;;26.90;95.60;;;;;;4935177;29;20530;-61
2023/07/29 16:05:08;;;;;;;1.67;1.57;;;26.80;96.00;;;;;;4935099;29;20410;-61
2023/07/29 16:07:33;;;;;;;1.50;1.40;;;26.80;96.10;;;;;;4935365;29;20492;-60
2023/07/29 16:09:59;;;;;;;1.40;1.30;;;26.70;95.90;;;;;;4935559;29;20944;-60
2023/07/29 16:12:24;;;;;;;1.27;1.10;;;26.70;95.90;;;;;;4935424;29;20540;-61
2023/07/29 16:14:51;;;;;;;1.23;1.13;;;26.70;96.40;;;;;;4935101;29;20233;-61
2023/07/29 16:17:16;;;;;;;1.60;1.50;;;26.60;96.20;;;;;;4935710;29;20563;-61
2023/07/29 16:19:57;;;;;;;1.20;1.10;;;26.60;96.20;;;;;;4935605;29;20473;-61
2023/07/29 16:22:22;;;;;;;1.27;1.17;;;26.60;96.80;;;;;;4938801;29;20181;-61
2023/07/29 16:24:48;;;;;;;1.30;1.20;;;26.50;97.20;;;;;;4937081;29;20409;-60
2023/07/29 16:27:14;;;;;;;1.20;1.20;;;26.60;97.50;;;;;;4938304;29;20219;-60
2023/07/29 16:29:39;;;;;;;1.80;1.70;;;26.70;97.50;;;;;;4938467;29;20422;-60
2023/07/29 16:32:05;;;;;;;1.90;1.50;;;26.70;97.00;;;;;;4937460;29;20600;-60
2023/07/29 16:34:31;;;;;;;1.10;1.10;;;26.70;97.00;;;;;;4938235;29;20193;-60
2023/07/29 16:36:57;;;;;;;1.40;1.30;;;26.70;97.10;;;;;;4938449;29;20443;-60
2023/07/29 16:39:22;;;;;;;1.57;1.27;;;26.60;96.70;;;;;;4936693;29;20182;-60
2023/07/29 16:41:48;;;;;;;1.60;1.50;;;26.50;96.90;;;;;;4937924;29;20217;-61
2023/07/29 16:44:13;;;;;;;2.00;1.90;;;26.40;97.10;;;;;;4938079;29;20265;-61
2023/07/29 16:46:39;;;;;;;1.23;1.20;;;26.40;97.20;;;;;;4938543;29;20256;-61
2023/07/29 16:49:04;;;;;;;1.47;1.30;;;26.30;97.40;;;;;;4938413;29;20188;-61